createdAt,value
2019-02-04T00:00:33.239Z,0.00
2019-02-04T00:01:33.186Z,0.00
2019-02-04T00:02:33.166Z,0.00
2019-02-04T00:03:33.155Z,0.00
2019-02-04T00:04:33.149Z,0.00
2019-02-04T00:05:33.132Z,0.00
2019-02-04T00:06:33.139Z,0.00
2019-02-04T00:07:33.181Z,0.00
2019-02-04T00:08:33.139Z,0.00
2019-02-04T00:09:33.117Z,0.00
2019-02-04T00:10:33.097Z,0.00
2019-02-04T00:11:33.123Z,0.00
2019-02-04T00:12:33.058Z,0.00
2019-02-04T00:13:33.059Z,0.00
2019-02-04T00:14:33.037Z,0.00
2019-02-04T00:15:33.023Z,0.00
2019-02-04T00:16:40.572Z,0.00
2019-02-04T00:17:34.000Z,0.00
2019-02-04T00:18:33.005Z,0.00
2019-02-04T00:19:32.985Z,0.00
2019-02-04T00:20:32.981Z,0.00
2019-02-04T00:21:32.998Z,0.00
2019-02-04T00:22:32.948Z,0.00
2019-02-04T00:23:32.936Z,0.00
2019-02-04T00:24:32.925Z,0.00
2019-02-04T00:25:32.926Z,0.00
2019-02-04T00:26:32.903Z,0.00
2019-02-04T00:27:32.911Z,0.00
2019-02-04T00:28:32.885Z,0.00
2019-02-04T00:29:32.924Z,0.00
2019-02-04T00:30:33.532Z,0.00
2019-02-04T00:31:32.863Z,0.00
2019-02-04T00:32:32.923Z,0.00
2019-02-04T00:33:32.826Z,0.00
2019-02-04T00:34:32.819Z,0.00
2019-02-04T00:35:32.814Z,0.00
2019-02-04T00:36:32.811Z,0.00
2019-02-04T00:37:32.786Z,0.00
2019-02-04T00:38:32.769Z,0.00
2019-02-04T00:39:32.771Z,0.00
2019-02-04T00:40:32.751Z,0.00
2019-02-04T00:41:32.745Z,0.00
2019-02-04T00:42:32.742Z,0.00
2019-02-04T00:43:32.731Z,0.00
2019-02-04T00:44:32.710Z,0.00
2019-02-04T00:45:32.700Z,0.00
2019-02-04T00:46:32.689Z,0.00
2019-02-04T00:47:32.688Z,0.00
2019-02-04T00:48:32.664Z,0.00
2019-02-04T00:49:32.789Z,0.00
2019-02-04T00:50:32.682Z,0.00
2019-02-04T00:51:32.631Z,0.00
2019-02-04T00:52:32.617Z,0.00
2019-02-04T00:53:32.606Z,0.00
2019-02-04T00:54:32.599Z,0.00
2019-02-04T00:55:32.584Z,0.00
2019-02-04T00:56:32.582Z,0.00
2019-02-04T00:57:32.563Z,0.00
2019-02-04T00:58:32.553Z,0.00
2019-02-04T00:59:32.557Z,0.00
2019-02-04T01:00:32.531Z,0.00
2019-02-04T01:01:32.536Z,0.00
2019-02-04T01:02:32.513Z,0.00
2019-02-04T01:03:32.504Z,0.00
2019-02-04T01:04:32.514Z,0.00
2019-02-04T01:05:32.481Z,0.00
2019-02-04T01:06:32.469Z,0.00
2019-02-04T01:07:32.454Z,0.00
2019-02-04T01:08:32.443Z,0.00
2019-02-04T01:09:32.452Z,0.00
2019-02-04T01:10:32.438Z,0.00
2019-02-04T01:11:32.412Z,0.00
2019-02-04T01:12:32.401Z,0.00
2019-02-04T01:13:32.388Z,0.00
2019-02-04T01:14:32.396Z,0.00
2019-02-04T01:15:32.375Z,0.00
2019-02-04T01:16:33.508Z,0.00
2019-02-04T01:17:32.344Z,0.00
2019-02-04T01:18:32.544Z,0.00
2019-02-04T01:19:32.324Z,0.00
2019-02-04T01:20:32.321Z,0.00
2019-02-04T01:21:32.303Z,0.00
2019-02-04T01:22:32.309Z,0.00
2019-02-04T01:23:32.289Z,0.00
2019-02-04T01:24:32.275Z,0.00
2019-02-04T01:25:32.356Z,0.00
2019-02-04T01:26:32.253Z,0.00
2019-02-04T01:27:32.242Z,0.00
2019-02-04T01:28:33.009Z,0.00
2019-02-04T01:29:32.216Z,0.00
2019-02-04T01:30:32.226Z,0.00
2019-02-04T01:31:32.278Z,0.00
2019-02-04T01:32:33.046Z,0.00
2019-02-04T01:33:32.176Z,0.00
2019-02-04T01:34:32.162Z,0.00
2019-02-04T01:35:32.159Z,0.00
2019-02-04T01:36:32.145Z,0.00
2019-02-04T01:37:32.162Z,0.00
2019-02-04T01:38:32.145Z,0.00
2019-02-04T01:39:32.114Z,0.00
2019-02-04T01:40:32.104Z,0.00
2019-02-04T01:41:33.288Z,0.00
2019-02-04T01:42:32.078Z,0.00
2019-02-04T01:43:34.014Z,0.00
2019-02-04T01:44:32.060Z,0.00
2019-02-04T01:45:32.049Z,0.00
2019-02-04T01:46:32.033Z,0.00
2019-02-04T01:47:32.050Z,0.00
2019-02-04T01:48:32.049Z,0.00
2019-02-04T01:49:32.034Z,0.00
2019-02-04T01:50:31.993Z,0.00
2019-02-04T01:51:31.980Z,0.00
2019-02-04T01:52:31.979Z,0.00
2019-02-04T01:53:31.961Z,0.00
2019-02-04T01:54:32.084Z,0.00
2019-02-04T01:55:31.944Z,0.00
2019-02-04T01:56:31.929Z,0.00
2019-02-04T01:57:31.917Z,0.00
2019-02-04T01:58:31.959Z,0.00
2019-02-04T01:59:31.897Z,0.00
2019-02-04T02:00:31.939Z,0.00
2019-02-04T02:01:31.869Z,0.00
2019-02-04T02:02:33.050Z,0.00
2019-02-04T02:03:31.849Z,0.00
2019-02-04T02:04:31.839Z,0.00
2019-02-04T02:05:31.826Z,0.00
2019-02-04T02:06:31.820Z,0.00
2019-02-04T02:07:31.844Z,0.00
2019-02-04T02:08:31.795Z,0.00
2019-02-04T02:09:31.792Z,0.00
2019-02-04T02:10:31.808Z,0.00
2019-02-04T02:11:31.762Z,0.00
2019-02-04T02:12:31.751Z,0.00
2019-02-04T02:13:31.739Z,0.00
2019-02-04T02:14:31.734Z,0.00
2019-02-04T02:15:31.720Z,0.00
2019-02-04T02:16:31.734Z,0.00
2019-02-04T02:17:31.703Z,0.00
2019-02-04T02:18:31.693Z,0.00
2019-02-04T02:19:31.676Z,0.00
2019-02-04T02:20:31.673Z,0.00
2019-02-04T02:21:31.714Z,0.00
2019-02-04T02:22:31.648Z,0.00
2019-02-04T02:23:31.633Z,0.00
2019-02-04T02:24:31.630Z,0.00
2019-02-04T02:25:31.617Z,0.00
2019-02-04T02:26:31.619Z,0.00
2019-02-04T02:27:31.592Z,0.00
2019-02-04T02:28:31.597Z,0.00
2019-02-04T02:29:31.638Z,0.00
2019-02-04T02:30:31.558Z,0.00
2019-02-04T02:31:31.555Z,0.00
2019-02-04T02:32:31.591Z,0.00
2019-02-04T02:33:31.526Z,0.00
2019-02-04T02:34:31.516Z,0.00
2019-02-04T02:35:31.503Z,0.00
2019-02-04T02:36:31.501Z,0.00
2019-02-04T02:37:31.486Z,0.00
2019-02-04T02:38:31.532Z,0.00
2019-02-04T02:39:31.466Z,0.00
2019-02-04T02:40:31.454Z,0.00
2019-02-04T02:41:31.441Z,0.00
2019-02-04T02:42:31.426Z,0.00
2019-02-04T02:43:31.428Z,0.00
2019-02-04T02:44:31.439Z,0.00
2019-02-04T02:45:31.396Z,0.00
2019-02-04T02:46:31.389Z,0.00
2019-02-04T02:47:38.488Z,0.00
2019-02-04T02:48:32.364Z,0.00
2019-02-04T02:49:31.353Z,0.00
2019-02-04T02:50:31.381Z,0.00
2019-02-04T02:51:31.333Z,0.00
2019-02-04T02:52:31.347Z,0.00
2019-02-04T02:53:31.313Z,0.00
2019-02-04T02:54:31.308Z,0.00
2019-02-04T02:55:31.284Z,0.00
2019-02-04T02:56:31.324Z,0.00
2019-02-04T02:57:31.271Z,0.00
2019-02-04T02:58:31.253Z,0.00
2019-02-04T02:59:31.240Z,0.00
2019-02-04T03:00:31.246Z,0.00
2019-02-04T03:01:31.222Z,0.00
2019-02-04T03:02:31.209Z,0.00
2019-02-04T03:03:31.202Z,0.00
2019-02-04T03:04:31.243Z,0.00
2019-02-04T03:05:31.176Z,0.00
2019-02-04T03:06:31.164Z,0.00
2019-02-04T03:07:31.156Z,0.00
2019-02-04T03:08:31.148Z,0.00
2019-02-04T03:09:31.132Z,0.00
2019-02-04T03:10:31.253Z,0.00
2019-02-04T03:11:31.115Z,0.00
2019-02-04T03:12:31.106Z,0.00
2019-02-04T03:13:31.099Z,0.00
2019-02-04T03:14:31.114Z,0.00
2019-02-04T03:15:31.105Z,0.00
2019-02-04T03:16:31.064Z,0.00
2019-02-04T03:17:31.049Z,0.00
2019-02-04T03:18:31.046Z,0.00
2019-02-04T03:19:31.023Z,0.00
2019-02-04T03:20:31.028Z,0.00
2019-02-04T03:21:31.005Z,0.00
2019-02-04T03:22:30.994Z,0.00
2019-02-04T03:23:31.008Z,0.00
2019-02-04T03:24:30.970Z,0.00
2019-02-04T03:25:30.959Z,0.00
2019-02-04T03:26:30.985Z,0.00
2019-02-04T03:27:30.964Z,0.00
2019-02-04T03:28:30.934Z,0.00
2019-02-04T03:29:30.916Z,0.00
2019-02-04T03:30:30.941Z,0.00
2019-02-04T03:31:30.954Z,0.00
2019-02-04T03:32:30.889Z,0.00
2019-02-04T03:33:30.879Z,0.00
2019-02-04T03:34:30.863Z,0.00
2019-02-04T03:35:30.854Z,0.00
2019-02-04T03:36:30.843Z,0.00
2019-02-04T03:37:30.838Z,0.00
2019-02-04T03:38:30.815Z,0.00
2019-02-04T03:39:30.806Z,0.00
2019-02-04T03:40:30.892Z,0.00
2019-02-04T03:41:30.820Z,0.00
2019-02-04T03:42:30.782Z,0.00
2019-02-04T03:43:30.760Z,0.00
2019-02-04T03:44:30.758Z,0.00
2019-02-04T03:45:30.740Z,0.00
2019-02-04T03:46:30.743Z,0.00
2019-02-04T03:47:30.718Z,0.00
2019-02-04T03:48:30.724Z,0.00
2019-02-04T03:49:30.701Z,0.00
2019-02-04T03:50:30.690Z,0.00
2019-02-04T03:51:30.676Z,0.00
2019-02-04T03:52:30.704Z,0.00
2019-02-04T03:53:30.658Z,0.00
2019-02-04T03:54:30.647Z,0.00
2019-02-04T03:55:30.636Z,0.00
2019-02-04T03:56:30.620Z,0.00
2019-02-04T03:57:30.608Z,0.00
2019-02-04T03:58:30.610Z,0.00
2019-02-04T03:59:30.591Z,0.00
2019-02-04T04:00:30.582Z,0.00
2019-02-04T04:01:30.568Z,0.00
2019-02-04T04:02:30.555Z,0.00
2019-02-04T04:03:30.595Z,0.00
2019-02-04T04:04:30.538Z,0.00
2019-02-04T04:05:30.526Z,0.00
2019-02-04T04:06:30.511Z,0.00
2019-02-04T04:07:30.504Z,0.00
2019-02-04T04:08:30.535Z,0.00
2019-02-04T04:09:30.485Z,0.00
2019-02-04T04:10:30.467Z,0.00
2019-02-04T04:11:30.457Z,0.00
2019-02-04T04:12:30.451Z,0.00
2019-02-04T04:13:30.444Z,0.00
2019-02-04T04:14:30.458Z,0.00
2019-02-04T04:15:30.555Z,0.00
2019-02-04T04:16:30.406Z,0.00
2019-02-04T04:17:30.389Z,0.00
2019-02-04T04:18:30.387Z,0.00
2019-02-04T04:19:30.426Z,0.00
2019-02-04T04:20:30.367Z,0.00
2019-02-04T04:21:30.351Z,0.00
2019-02-04T04:22:30.363Z,0.00
2019-02-04T04:23:30.342Z,0.00
2019-02-04T04:24:30.320Z,0.00
2019-02-04T04:25:30.303Z,0.00
2019-02-04T04:26:30.298Z,0.00
2019-02-04T04:27:30.313Z,0.00
2019-02-04T04:28:30.271Z,0.00
2019-02-04T04:29:30.269Z,0.00
2019-02-04T04:30:30.252Z,0.00
2019-02-04T04:31:30.251Z,0.00
2019-02-04T04:32:30.241Z,0.00
2019-02-04T04:33:30.236Z,0.00
2019-02-04T04:34:30.210Z,0.00
2019-02-04T04:35:30.206Z,0.00
2019-02-04T04:36:30.193Z,0.00
2019-02-04T04:37:30.177Z,0.00
2019-02-04T04:38:30.187Z,0.00
2019-02-04T04:39:30.151Z,0.00
2019-02-04T04:40:30.159Z,0.00
2019-02-04T04:41:30.136Z,0.00
2019-02-04T04:42:30.123Z,0.00
2019-02-04T04:43:30.145Z,0.00
2019-02-04T04:44:30.098Z,0.00
2019-02-04T04:45:30.083Z,0.00
2019-02-04T04:46:30.078Z,0.00
2019-02-04T04:47:30.103Z,0.00
2019-02-04T04:48:30.056Z,0.00
2019-02-04T04:49:30.046Z,0.00
2019-02-04T04:50:30.034Z,0.00
2019-02-04T04:51:30.025Z,0.00
2019-02-04T04:52:30.024Z,0.00
2019-02-04T04:53:30.057Z,0.00
2019-02-04T04:54:30.000Z,0.00
2019-02-04T04:55:29.985Z,0.00
2019-02-04T04:56:29.973Z,0.00
2019-02-04T04:57:29.954Z,0.00
2019-02-04T04:58:30.001Z,0.00
2019-02-04T04:59:29.966Z,0.00
2019-02-04T05:00:29.924Z,0.00
2019-02-04T05:01:29.910Z,0.00
2019-02-04T05:02:29.904Z,0.00
2019-02-04T05:03:29.976Z,0.00
2019-02-04T05:04:29.883Z,0.00
2019-02-04T05:05:29.874Z,0.00
2019-02-04T05:06:29.863Z,0.00
2019-02-04T05:07:29.852Z,0.00
2019-02-04T05:08:29.835Z,0.00
2019-02-04T05:09:29.884Z,0.00
2019-02-04T05:10:29.871Z,0.00
2019-02-04T05:11:29.925Z,0.00
2019-02-04T05:12:29.799Z,0.00
2019-02-04T05:13:29.779Z,0.00
2019-02-04T05:14:29.774Z,0.00
2019-02-04T05:15:29.771Z,0.00
2019-02-04T05:16:29.753Z,0.00
2019-02-04T05:17:29.737Z,0.00
2019-02-04T05:18:37.718Z,0.00
2019-02-04T05:19:30.712Z,0.00
2019-02-04T05:20:29.715Z,0.00
2019-02-04T05:21:29.701Z,0.00
2019-02-04T05:22:29.684Z,0.00
2019-02-04T05:23:29.677Z,0.00
2019-02-04T05:24:29.665Z,0.00
2019-02-04T05:25:29.667Z,0.00
2019-02-04T05:26:29.695Z,0.00
2019-02-04T05:27:29.631Z,0.00
2019-02-04T05:28:29.620Z,0.00
2019-02-04T05:29:29.611Z,0.00
2019-02-04T05:30:29.595Z,0.00
2019-02-04T05:31:29.617Z,0.00
2019-02-04T05:32:29.579Z,0.00
2019-02-04T05:33:29.576Z,0.00
2019-02-04T05:34:29.555Z,0.00
2019-02-04T05:35:29.544Z,0.00
2019-02-04T05:36:29.535Z,0.00
2019-02-04T05:37:29.555Z,0.00
2019-02-04T05:38:29.526Z,0.00
2019-02-04T05:39:29.496Z,0.00
2019-02-04T05:40:29.487Z,0.00
2019-02-04T05:41:29.510Z,0.00
2019-02-04T05:42:29.469Z,0.00
2019-02-04T05:43:29.461Z,0.00
2019-02-04T05:44:29.450Z,0.00
2019-02-04T05:45:29.434Z,0.00
2019-02-04T05:46:29.426Z,0.00
2019-02-04T05:47:29.465Z,0.00
2019-02-04T05:48:29.399Z,0.00
2019-02-04T05:49:29.387Z,0.00
2019-02-04T05:50:29.380Z,0.00
2019-02-04T05:51:29.368Z,0.00
2019-02-04T05:52:29.392Z,0.00
2019-02-04T05:53:29.349Z,0.00
2019-02-04T05:54:29.344Z,0.00
2019-02-04T05:55:30.649Z,0.00
2019-02-04T05:56:29.312Z,0.00
2019-02-04T05:57:29.305Z,0.00
2019-02-04T05:58:29.360Z,0.00
2019-02-04T05:59:29.285Z,0.00
2019-02-04T06:00:29.276Z,0.00
2019-02-04T06:01:29.259Z,0.00
2019-02-04T06:02:29.246Z,0.00
2019-02-04T06:03:29.260Z,0.00
2019-02-04T06:04:29.244Z,0.00
2019-02-04T06:05:29.212Z,0.00
2019-02-04T06:06:29.209Z,0.00
2019-02-04T06:07:29.191Z,0.00
2019-02-04T06:08:29.182Z,0.00
2019-02-04T06:09:29.201Z,0.00
2019-02-04T06:10:29.172Z,0.00
2019-02-04T06:11:29.152Z,0.00
2019-02-04T06:12:29.145Z,4.00
2019-02-04T06:13:29.131Z,4.00
2019-02-04T06:14:29.154Z,4.00
2019-02-04T06:15:29.117Z,4.00
2019-02-04T06:16:29.100Z,0.00
2019-02-04T06:17:29.089Z,4.00
2019-02-04T06:18:29.090Z,4.00
2019-02-04T06:19:29.062Z,4.00
2019-02-04T06:20:29.090Z,8.00
2019-02-04T06:21:29.045Z,4.00
2019-02-04T06:22:29.034Z,4.00
2019-02-04T06:23:29.029Z,8.00
2019-02-04T06:24:29.016Z,8.00
2019-02-04T06:25:29.036Z,12.00
2019-02-04T06:26:28.992Z,12.00
2019-02-04T06:27:28.980Z,16.00
2019-02-04T06:28:28.964Z,16.00
2019-02-04T06:29:28.954Z,20.00
2019-02-04T06:30:28.989Z,20.00
2019-02-04T06:31:28.935Z,28.00
2019-02-04T06:32:28.927Z,28.00
2019-02-04T06:33:28.914Z,32.00
2019-02-04T06:34:28.914Z,40.00
2019-02-04T06:35:28.915Z,40.00
2019-02-04T06:36:28.892Z,44.00
2019-02-04T06:37:28.866Z,52.00
2019-02-04T06:38:28.855Z,56.00
2019-02-04T06:39:28.843Z,60.00
2019-02-04T06:40:28.879Z,68.00
2019-02-04T06:41:28.822Z,76.00
2019-02-04T06:42:28.821Z,88.00
2019-02-04T06:43:28.804Z,100.00
2019-02-04T06:44:28.789Z,104.00
2019-02-04T06:45:28.792Z,112.00
2019-02-04T06:46:28.804Z,116.00
2019-02-04T06:47:28.757Z,124.00
2019-02-04T06:48:28.746Z,132.00
2019-02-04T06:49:28.736Z,144.00
2019-02-04T06:50:28.732Z,164.00
2019-02-04T06:51:28.716Z,192.00
2019-02-04T06:52:28.715Z,200.00
2019-02-04T06:53:28.692Z,192.00
2019-02-04T06:54:28.683Z,196.00
2019-02-04T06:55:28.674Z,216.00
2019-02-04T06:56:28.664Z,248.00
2019-02-04T06:57:28.675Z,264.00
2019-02-04T06:58:28.667Z,264.00
2019-02-04T06:59:28.630Z,260.00
2019-02-04T07:00:28.621Z,276.00
2019-02-04T07:01:28.606Z,292.00
2019-02-04T07:02:28.654Z,316.00
2019-02-04T07:03:28.591Z,332.00
2019-02-04T07:04:28.576Z,336.00
2019-02-04T07:05:28.561Z,344.00
2019-02-04T07:06:28.555Z,352.00
2019-02-04T07:07:28.553Z,360.00
2019-02-04T07:08:28.547Z,368.00
2019-02-04T07:09:28.522Z,392.00
2019-02-04T07:10:28.508Z,404.00
2019-02-04T07:11:28.496Z,420.00
2019-02-04T07:12:28.490Z,432.00
2019-02-04T07:13:28.481Z,472.00
2019-02-04T07:14:28.490Z,576.00
2019-02-04T07:15:28.460Z,564.00
2019-02-04T07:16:28.448Z,560.00
2019-02-04T07:17:28.437Z,556.00
2019-02-04T07:18:28.436Z,568.00
2019-02-04T07:19:28.421Z,564.00
2019-02-04T07:20:28.410Z,588.00
2019-02-04T07:21:28.388Z,616.00
2019-02-04T07:22:28.386Z,640.00
2019-02-04T07:23:28.368Z,656.00
2019-02-04T07:24:28.384Z,696.00
2019-02-04T07:25:28.344Z,732.00
2019-02-04T07:26:28.339Z,804.00
2019-02-04T07:27:28.329Z,948.00
2019-02-04T07:28:28.372Z,936.00
2019-02-04T07:29:28.309Z,1024.00
2019-02-04T07:30:28.309Z,904.00
2019-02-04T07:31:28.286Z,800.00
2019-02-04T07:32:28.300Z,824.00
2019-02-04T07:33:28.264Z,788.00
2019-02-04T07:34:28.305Z,784.00
2019-02-04T07:35:28.245Z,752.00
2019-02-04T07:36:28.230Z,728.00
2019-02-04T07:37:28.214Z,728.00
2019-02-04T07:38:28.204Z,744.00
2019-02-04T07:39:28.195Z,752.00
2019-02-04T07:40:28.210Z,776.00
2019-02-04T07:41:28.177Z,868.00
2019-02-04T07:42:28.166Z,956.00
2019-02-04T07:43:28.155Z,1000.00
2019-02-04T07:44:28.138Z,1016.00
2019-02-04T07:45:28.662Z,1036.00
2019-02-04T07:46:28.122Z,1080.00
2019-02-04T07:47:28.111Z,1108.00
2019-02-04T07:48:28.097Z,1116.00
2019-02-04T07:49:35.030Z,1080.00
2019-02-04T07:50:29.098Z,1132.00
2019-02-04T07:51:28.069Z,1136.00
2019-02-04T07:52:28.058Z,1156.00
2019-02-04T07:53:28.051Z,1228.00
2019-02-04T07:54:28.033Z,1296.00
2019-02-04T07:55:28.020Z,1204.00
2019-02-04T07:56:28.024Z,1204.00
2019-02-04T07:57:28.002Z,1248.00
2019-02-04T07:58:28.000Z,1328.00
2019-02-04T07:59:27.985Z,1288.00
2019-02-04T08:00:27.966Z,1288.00
2019-02-04T08:01:28.012Z,1348.00
2019-02-04T08:02:27.944Z,1516.00
2019-02-04T08:03:27.948Z,1316.00
2019-02-04T08:04:27.927Z,1360.00
2019-02-04T08:05:27.917Z,1392.00
2019-02-04T08:06:27.907Z,1340.00
2019-02-04T08:07:27.949Z,1412.00
2019-02-04T08:08:27.884Z,1420.00
2019-02-04T08:09:27.875Z,1368.00
2019-02-04T08:10:27.861Z,1400.00
2019-02-04T08:11:27.853Z,1712.00
2019-02-04T08:12:27.845Z,1600.00
2019-02-04T08:13:27.846Z,1512.00
2019-02-04T08:14:27.813Z,1448.00
2019-02-04T08:15:27.803Z,1484.00
2019-02-04T08:16:27.792Z,1484.00
2019-02-04T08:17:27.794Z,1488.00
2019-02-04T08:18:27.792Z,1440.00
2019-02-04T08:19:27.761Z,1516.00
2019-02-04T08:20:27.755Z,1728.00
2019-02-04T08:21:27.738Z,1576.00
2019-02-04T08:22:27.731Z,1460.00
2019-02-04T08:23:27.724Z,1508.00
2019-02-04T08:24:27.719Z,1532.00
2019-02-04T08:25:27.701Z,1516.00
2019-02-04T08:26:27.684Z,1496.00
2019-02-04T08:27:27.677Z,1532.00
2019-02-04T08:28:27.676Z,1488.00
2019-02-04T08:29:27.667Z,1516.00
2019-02-04T08:30:27.646Z,1580.00
2019-02-04T08:31:27.632Z,1508.00
2019-02-04T08:32:27.627Z,1560.00
2019-02-04T08:33:27.606Z,1544.00
2019-02-04T08:34:27.610Z,1516.00
2019-02-04T08:35:27.587Z,1540.00
2019-02-04T08:36:27.579Z,1540.00
2019-02-04T08:37:27.563Z,1532.00
2019-02-04T08:38:27.558Z,1548.00
2019-02-04T08:39:27.551Z,1604.00
2019-02-04T08:40:27.542Z,1564.00
2019-02-04T08:41:27.530Z,1616.00
2019-02-04T08:42:27.511Z,1604.00
2019-02-04T08:43:27.503Z,1560.00
2019-02-04T08:44:27.486Z,1588.00
2019-02-04T08:45:27.546Z,1596.00
2019-02-04T08:46:27.469Z,1656.00
2019-02-04T08:47:27.462Z,1612.00
2019-02-04T08:48:27.441Z,1628.00
2019-02-04T08:49:27.435Z,1608.00
2019-02-04T08:50:27.421Z,1660.00
2019-02-04T08:51:27.433Z,1676.00
2019-02-04T08:52:27.404Z,1712.00
2019-02-04T08:53:27.386Z,1724.00
2019-02-04T08:54:27.373Z,1680.00
2019-02-04T08:55:27.375Z,1708.00
2019-02-04T08:56:27.353Z,1748.00
2019-02-04T08:57:27.354Z,1736.00
2019-02-04T08:58:27.331Z,1756.00
2019-02-04T08:59:27.322Z,1800.00
2019-02-04T09:00:27.312Z,1784.00
2019-02-04T09:01:27.300Z,1788.00
2019-02-04T09:02:27.308Z,1812.00
2019-02-04T09:03:27.280Z,1972.00
2019-02-04T09:04:27.271Z,1952.00
2019-02-04T09:05:27.257Z,1952.00
2019-02-04T09:06:27.242Z,2008.00
2019-02-04T09:07:27.230Z,2228.00
2019-02-04T09:08:27.228Z,2420.00
2019-02-04T09:09:27.214Z,2648.00
2019-02-04T09:10:27.203Z,3108.00
2019-02-04T09:11:27.215Z,3528.00
2019-02-04T09:12:27.174Z,4336.00
2019-02-04T09:13:27.177Z,4940.00
2019-02-04T09:14:27.169Z,5868.00
2019-02-04T09:15:27.146Z,6628.00
2019-02-04T09:16:27.137Z,6684.00
2019-02-04T09:17:27.124Z,6840.00
2019-02-04T09:18:27.127Z,7192.00
2019-02-04T09:19:27.097Z,7344.00
2019-02-04T09:20:27.090Z,7504.00
2019-02-04T09:21:27.080Z,7692.00
2019-02-04T09:22:27.064Z,7728.00
2019-02-04T09:23:27.136Z,7828.00
2019-02-04T09:24:27.064Z,7684.00
2019-02-04T09:25:27.086Z,7780.00
2019-02-04T09:26:27.022Z,7868.00
2019-02-04T09:27:27.015Z,7948.00
2019-02-04T09:28:29.820Z,7908.00
2019-02-04T09:29:26.998Z,7900.00
2019-02-04T09:30:26.976Z,7952.00
2019-02-04T09:31:26.970Z,7928.00
2019-02-04T09:32:26.954Z,8048.00
2019-02-04T09:33:26.953Z,8000.00
2019-02-04T09:34:29.806Z,8012.00
2019-02-04T09:35:27.620Z,8084.00
2019-02-04T09:36:26.953Z,8136.00
2019-02-04T09:37:26.899Z,7988.00
2019-02-04T09:38:26.890Z,8176.00
2019-02-04T09:39:28.600Z,8240.00
2019-02-04T09:40:26.874Z,8264.00
2019-02-04T09:41:26.859Z,8132.00
2019-02-04T09:42:26.860Z,8168.00
2019-02-04T09:43:26.842Z,8328.00
2019-02-04T09:44:26.907Z,8296.00
2019-02-04T09:45:27.824Z,8388.00
2019-02-04T09:46:26.806Z,8336.00
2019-02-04T09:47:26.795Z,8340.00
2019-02-04T09:48:26.781Z,8404.00
2019-02-04T09:49:26.775Z,8456.00
2019-02-04T09:50:26.783Z,8408.00
2019-02-04T09:51:26.750Z,8516.00
2019-02-04T09:52:26.743Z,8480.00
2019-02-04T09:53:26.735Z,8184.00
2019-02-04T09:54:26.717Z,8460.00
2019-02-04T09:55:26.716Z,8172.00
2019-02-04T09:56:26.697Z,8520.00
2019-02-04T09:57:26.686Z,8648.00
2019-02-04T09:58:26.673Z,8344.00
2019-02-04T09:59:26.656Z,8048.00
2019-02-04T10:00:26.686Z,8564.00
2019-02-04T10:01:26.638Z,8492.00
2019-02-04T10:02:26.628Z,8700.00
2019-02-04T10:03:26.618Z,8636.00
2019-02-04T10:04:26.601Z,8556.00
2019-02-04T10:05:26.594Z,8580.00
2019-02-04T10:06:26.590Z,8748.00
2019-02-04T10:07:26.585Z,8672.00
2019-02-04T10:08:26.571Z,8684.00
2019-02-04T10:09:27.082Z,8648.00
2019-02-04T10:10:26.543Z,8668.00
2019-02-04T10:11:26.569Z,8672.00
2019-02-04T10:12:26.517Z,8684.00
2019-02-04T10:13:26.508Z,8692.00
2019-02-04T10:14:26.506Z,8676.00
2019-02-04T10:15:26.507Z,8792.00
2019-02-04T10:16:26.577Z,8656.00
2019-02-04T10:17:27.150Z,8632.00
2019-02-04T10:18:26.511Z,8592.00
2019-02-04T10:19:26.577Z,8560.00
2019-02-04T10:20:33.613Z,8772.00
2019-02-04T10:21:27.504Z,8576.00
2019-02-04T10:22:26.417Z,8580.00
2019-02-04T10:23:26.409Z,8676.00
2019-02-04T10:24:26.439Z,8736.00
2019-02-04T10:25:26.484Z,8636.00
2019-02-04T10:26:26.402Z,8644.00
2019-02-04T10:27:26.377Z,8756.00
2019-02-04T10:28:26.341Z,8708.00
2019-02-04T10:29:26.352Z,8648.00
2019-02-04T10:30:26.327Z,8612.00
2019-02-04T10:31:26.331Z,8524.00
2019-02-04T10:32:26.335Z,8580.00
2019-02-04T10:33:26.336Z,8428.00
2019-02-04T10:34:26.308Z,8572.00
2019-02-04T10:35:26.265Z,8364.00
2019-02-04T10:36:26.269Z,8452.00
2019-02-04T10:37:26.260Z,8616.00
2019-02-04T10:38:26.246Z,8484.00
2019-02-04T10:39:26.216Z,8484.00
2019-02-04T10:40:26.236Z,8604.00
2019-02-04T10:41:26.279Z,8384.00
2019-02-04T10:42:26.261Z,9224.00
2019-02-04T10:43:26.226Z,8728.00
2019-02-04T10:44:26.158Z,8680.00
2019-02-04T10:45:26.194Z,8088.00
2019-02-04T10:46:26.142Z,8356.00
2019-02-04T10:47:26.147Z,8344.00
2019-02-04T10:48:26.158Z,8500.00
2019-02-04T10:49:26.144Z,8468.00
2019-02-04T10:50:26.117Z,8512.00
2019-02-04T10:51:26.114Z,8548.00
2019-02-04T10:52:26.097Z,8428.00
2019-02-04T10:53:26.055Z,8072.00
2019-02-04T10:54:26.053Z,8360.00
2019-02-04T10:55:26.071Z,8352.00
2019-02-04T10:56:26.050Z,8464.00
2019-02-04T10:57:26.018Z,8420.00
2019-02-04T10:58:25.998Z,8392.00
2019-02-04T10:59:25.993Z,8620.00
2019-02-04T11:00:26.154Z,8684.00
2019-02-04T11:01:26.685Z,8628.00
2019-02-04T11:02:26.000Z,8624.00
2019-02-04T11:03:26.005Z,8476.00
2019-02-04T11:04:26.619Z,7464.00
2019-02-04T11:05:25.943Z,10492.00
2019-02-04T11:06:25.958Z,12340.00
2019-02-04T11:07:25.911Z,7672.00
2019-02-04T11:08:25.893Z,11944.00
2019-02-04T11:09:25.939Z,11048.00
2019-02-04T11:10:25.911Z,2244.00
2019-02-04T11:11:25.972Z,3116.00
2019-02-04T11:12:25.852Z,4832.00
2019-02-04T11:13:25.864Z,10444.00
2019-02-04T11:14:25.847Z,9252.00
2019-02-04T11:15:25.842Z,2536.00
2019-02-04T11:16:25.827Z,8460.00
2019-02-04T11:17:25.831Z,9160.00
2019-02-04T11:18:25.818Z,9792.00
2019-02-04T11:19:25.800Z,8788.00
2019-02-04T11:20:26.625Z,9696.00
2019-02-04T11:21:25.774Z,8660.00
2019-02-04T11:22:25.741Z,5192.00
2019-02-04T11:23:29.008Z,8108.00
2019-02-04T11:24:25.764Z,8104.00
2019-02-04T11:25:25.769Z,7672.00
2019-02-04T11:26:25.734Z,7808.00
2019-02-04T11:27:25.724Z,5584.00
2019-02-04T11:28:25.737Z,1948.00
2019-02-04T11:29:25.667Z,6872.00
2019-02-04T11:30:25.650Z,7248.00
2019-02-04T11:31:25.642Z,8084.00
2019-02-04T11:32:25.661Z,6892.00
2019-02-04T11:33:25.666Z,6808.00
2019-02-04T11:34:25.614Z,1848.00
2019-02-04T11:35:25.626Z,5800.00
2019-02-04T11:36:25.587Z,6832.00
2019-02-04T11:37:25.572Z,7168.00
2019-02-04T11:38:25.600Z,7308.00
2019-02-04T11:39:25.566Z,7408.00
2019-02-04T11:40:25.549Z,7784.00
2019-02-04T11:41:25.564Z,7596.00
2019-02-04T11:42:25.514Z,7564.00
2019-02-04T11:43:25.536Z,7652.00
2019-02-04T11:44:25.500Z,8244.00
2019-02-04T11:45:25.524Z,8296.00
2019-02-04T11:46:25.473Z,8288.00
2019-02-04T11:47:25.515Z,8408.00
2019-02-04T11:48:25.447Z,8076.00
2019-02-04T11:49:25.457Z,9048.00
2019-02-04T11:50:25.424Z,8880.00
2019-02-04T11:51:25.413Z,10316.00
2019-02-04T11:52:25.433Z,9620.00
2019-02-04T11:53:32.993Z,8592.00
2019-02-04T11:54:26.388Z,7504.00
2019-02-04T11:55:25.374Z,8728.00
2019-02-04T11:56:26.421Z,8492.00
2019-02-04T11:57:25.348Z,8500.00
2019-02-04T11:58:26.190Z,8372.00
2019-02-04T11:59:25.344Z,8832.00
2019-02-04T12:00:25.341Z,9084.00
2019-02-04T12:01:25.338Z,7764.00
2019-02-04T12:02:34.405Z,8384.00
2019-02-04T12:03:26.281Z,8880.00
2019-02-04T12:04:25.279Z,9448.00
2019-02-04T12:05:25.268Z,9444.00
2019-02-04T12:06:25.260Z,7608.00
2019-02-04T12:07:25.235Z,7352.00
2019-02-04T12:08:25.240Z,7876.00
2019-02-04T12:09:25.221Z,8020.00
2019-02-04T12:10:25.208Z,8212.00
2019-02-04T12:11:25.201Z,7996.00
2019-02-04T12:12:25.180Z,7888.00
2019-02-04T12:13:25.184Z,8276.00
2019-02-04T12:14:25.175Z,8488.00
2019-02-04T12:15:25.185Z,8364.00
2019-02-04T12:16:25.189Z,8360.00
2019-02-04T12:17:25.138Z,7112.00
2019-02-04T12:18:25.113Z,6836.00
2019-02-04T12:19:25.105Z,6312.00
2019-02-04T12:20:25.101Z,6492.00
2019-02-04T12:21:25.086Z,6768.00
2019-02-04T12:22:25.091Z,6112.00
2019-02-04T12:23:25.093Z,5544.00
2019-02-04T12:24:25.049Z,5908.00
2019-02-04T12:25:25.042Z,6004.00
2019-02-04T12:26:25.033Z,5956.00
2019-02-04T12:27:31.745Z,5332.00
2019-02-04T12:28:26.021Z,6136.00
2019-02-04T12:29:25.005Z,3856.00
2019-02-04T12:30:24.982Z,4856.00
2019-02-04T12:31:24.973Z,2992.00
2019-02-04T12:32:24.976Z,3200.00
2019-02-04T12:33:24.951Z,4084.00
2019-02-04T12:34:24.966Z,4132.00
2019-02-04T12:35:24.930Z,5336.00
2019-02-04T12:36:24.924Z,4656.00
2019-02-04T12:37:25.004Z,4228.00
2019-02-04T12:38:24.899Z,3384.00
2019-02-04T12:39:24.889Z,3128.00
2019-02-04T12:40:24.872Z,3984.00
2019-02-04T12:41:24.862Z,5304.00
2019-02-04T12:42:24.848Z,3452.00
2019-02-04T12:43:24.891Z,6012.00